createdAt,value
2022-11-10T00:09:24.670Z,99.90
2022-11-10T00:19:29.188Z,99.90
2022-11-10T00:29:30.821Z,99.90
2022-11-10T00:39:32.444Z,99.90
2022-11-10T00:59:36.143Z,99.90
2022-11-10T01:09:37.891Z,99.90
2022-11-10T01:19:41.463Z,99.90
2022-11-10T01:29:43.410Z,99.90
2022-11-10T01:39:45.057Z,99.90
2022-11-10T01:49:46.713Z,99.90
2022-11-10T01:59:50.046Z,99.90
2022-11-10T02:09:53.441Z,99.90
2022-11-10T02:19:59.604Z,99.90
2022-11-10T02:30:02.684Z,99.90
2022-11-10T02:40:05.356Z,99.90
2022-11-10T02:50:07.486Z,99.90
2022-11-10T03:00:09.667Z,99.90
2022-11-10T03:10:11.304Z,99.90
2022-11-10T03:20:13.146Z,99.90
2022-11-10T03:30:14.996Z,99.90
2022-11-10T03:40:16.673Z,99.90
2022-11-10T03:50:18.411Z,99.90
2022-11-10T04:00:20.278Z,99.90
2022-11-10T04:10:21.931Z,99.90
2022-11-10T04:20:23.539Z,99.90
2022-11-10T04:30:25.169Z,99.90
2022-11-10T04:40:26.769Z,99.90
2022-11-10T04:50:28.408Z,99.90
2022-11-10T05:00:30.170Z,99.90
2022-11-10T05:10:32.050Z,99.90
2022-11-10T05:20:33.718Z,99.90
2022-11-10T05:30:35.905Z,99.90
2022-11-10T05:40:37.508Z,99.90
2022-11-10T05:50:39.139Z,99.90
2022-11-10T06:00:40.940Z,99.90
2022-11-10T06:10:42.588Z,99.90
2022-11-10T06:20:46.302Z,99.90
2022-11-10T06:30:48.023Z,99.90
2022-11-10T06:40:49.647Z,99.90
2022-11-10T06:50:51.272Z,99.90
2022-11-10T07:00:52.964Z,99.90
2022-11-10T07:10:55.457Z,99.90
2022-11-10T07:20:57.083Z,99.90
2022-11-10T07:31:01.769Z,99.90
2022-11-10T07:41:03.437Z,99.90
2022-11-10T07:51:05.232Z,99.90
2022-11-10T08:01:06.960Z,99.90
2022-11-10T08:11:08.681Z,99.90
2022-11-10T08:21:10.313Z,99.90
2022-11-10T08:31:11.943Z,99.90
2022-11-10T08:41:13.598Z,99.90
2022-11-10T08:51:15.216Z,99.90
2022-11-10T09:01:16.859Z,99.90
2022-11-10T09:11:18.487Z,99.90
2022-11-10T09:21:20.102Z,99.90
2022-11-10T09:31:21.864Z,99.90
2022-11-10T09:41:23.517Z,99.90
2022-11-10T09:51:29.091Z,99.90
2022-11-10T10:01:51.351Z,99.90
2022-11-10T10:12:24.426Z,99.40
2022-11-10T10:22:35.364Z,99.80
2022-11-10T10:32:37.006Z,99.40
2022-11-10T10:42:38.711Z,99.20
2022-11-10T10:52:40.334Z,98.20
2022-11-10T11:02:41.990Z,98.10
2022-11-10T11:12:43.626Z,97.60
2022-11-10T11:22:55.425Z,97.70
2022-11-10T11:33:12.075Z,97.50
2022-11-10T11:43:25.180Z,96.50
2022-11-10T11:53:48.052Z,96.80
2022-11-10T12:03:59.218Z,96.30
2022-11-10T12:14:21.747Z,95.70
2022-11-10T12:24:28.737Z,95.40
2022-11-10T12:34:44.000Z,94.00
2022-11-10T12:45:00.211Z,94.30
2022-11-10T12:55:02.023Z,93.20
2022-11-10T13:05:18.716Z,92.90
2022-11-10T13:15:48.414Z,92.80
2022-11-10T13:25:57.857Z,92.60
2022-11-10T13:35:59.670Z,92.70
2022-11-10T13:46:03.709Z,92.80
2022-11-10T13:56:50.631Z,93.00
2022-11-10T14:06:55.050Z,93.20
2022-11-10T14:16:57.317Z,93.00
2022-11-10T14:27:05.000Z,92.30
2022-11-10T14:37:06.847Z,92.50
2022-11-10T14:47:25.061Z,92.30
2022-11-10T14:57:26.985Z,92.60
2022-11-10T15:07:28.917Z,93.00
2022-11-10T15:17:50.480Z,93.20
2022-11-10T15:28:12.230Z,93.70
2022-11-10T15:38:19.641Z,94.10
2022-11-10T15:48:23.413Z,94.40
2022-11-10T15:58:27.521Z,94.70
2022-11-10T16:08:32.076Z,95.00
2022-11-10T16:18:33.784Z,95.40
2022-11-10T16:28:35.409Z,95.70
2022-11-10T16:38:37.066Z,95.90
2022-11-10T16:48:38.815Z,96.20
2022-11-10T16:58:40.609Z,96.40
2022-11-10T17:08:43.496Z,96.70
2022-11-10T17:18:45.260Z,96.80
2022-11-10T17:28:47.240Z,97.00
2022-11-10T17:38:49.307Z,97.40
2022-11-10T17:48:54.755Z,97.60
2022-11-10T17:58:56.645Z,97.80
2022-11-10T18:08:58.303Z,98.20
2022-11-10T18:19:00.301Z,98.60
2022-11-10T18:29:01.972Z,98.80
2022-11-10T18:39:03.703Z,99.10
2022-11-10T18:49:05.504Z,99.20
2022-11-10T18:59:07.141Z,99.30
2022-11-10T19:09:08.794Z,99.30
2022-11-10T19:19:10.737Z,99.80
2022-11-10T19:29:12.414Z,99.80
2022-11-10T19:39:14.698Z,99.90
2022-11-10T19:49:16.524Z,99.90
2022-11-10T19:59:19.915Z,99.90
2022-11-10T20:09:24.525Z,99.90
2022-11-10T20:19:26.229Z,99.90
2022-11-10T20:29:27.974Z,99.90
2022-11-10T20:39:29.634Z,99.90
2022-11-10T20:49:31.282Z,99.90
2022-11-10T20:59:33.212Z,99.90
2022-11-10T21:09:34.830Z,99.90
2022-11-10T21:19:36.587Z,99.90
2022-11-10T21:29:38.375Z,99.90
2022-11-10T21:39:40.732Z,99.90
2022-11-10T21:49:42.350Z,99.90
2022-11-10T21:59:43.961Z,99.90
2022-11-10T22:10:04.016Z,99.90
2022-11-10T22:20:06.157Z,99.90
2022-11-10T22:30:08.526Z,99.90
2022-11-10T22:40:29.716Z,99.90
2022-11-10T22:50:31.314Z,99.90
2022-11-10T23:00:32.910Z,99.90
2022-11-10T23:10:34.882Z,99.90
2022-11-10T23:20:36.498Z,99.90
2022-11-10T23:30:38.094Z,99.90
2022-11-10T23:40:39.729Z,99.90
2022-11-10T23:50:41.431Z,99.90
